Latest Coastal Weather Observations for Yeppoon

IDQ60701

Issued at 11:51 am EST Friday 23 June 2017 (issued every 10 minutes, with the page automatically refreshed every 10 minutes)

About coastal observations | Map of coastal stations | Coastal observations for QLD | Marine services | Other Formats
Station Details ID: 033294 Name: YEPPOON THE ESPLANADE Lat: -23.14 Lon: 150.75 Height: 5.5 m
Data from the previous 72 hours. | See also: Recent months at Yeppoon
Date/Time
EST
Temp
°C
Wind Pressure Rain since
9am
mm
Weather Cloud Vis
km
Sea
Height
m
Swell
Dir  Spd
kts
Gust
kts
hPa Trend Height
m
Period
s
Dir
23/11:30am 22.3 SSE 8 13 1021.2 - 0.0 - - - - - - -
23/11:00am 21.9 SSE 8 13 1021.7 - 0.0 - - - - - - -
23/10:30am 21.5 S 6 11 1022.0 - 0.0 - - - - - - -
23/10:00am 20.7 SSE 7 13 1022.2 - 0.0 - - - - - - -
23/09:30am 20.1 SSE 6 9 1022.3 - 0.0 - - - - - - -
23/09:00am 19.1 S 7 9 1022.2 - 0.0 - - - - - - -
23/08:30am 18.7 SSW 6 8 1022.2 - 0.0 - - - - - - -
23/08:00am 18.0 SSW 5 8 1021.9 - 0.0 - - - - - - -
23/07:30am 17.6 SSW 4 7 1021.6 - 0.0 - - - - - - -
23/07:00am 17.2 SSW 4 7 1021.3 - 0.0 - - - - - - -
23/06:30am 17.2 SSW 7 10 1021.1 - 0.0 - - - - - - -
23/06:00am 17.3 SSW 7 9 1020.9 - 0.0 - - - - - - -
23/05:30am 17.4 SSW 6 11 1020.8 - 0.0 - - - - - - -
23/05:00am 17.2 SSW 7 11 1020.6 - 0.0 - - - - - - -
23/04:30am 17.2 SSW 6 10 1020.6 - 0.0 - - - - - - -
23/04:00am 17.2 SSW 8 11 1020.6 - 0.0 - - - - - - -
23/03:30am 17.3 SSW 6 9 1020.7 - 0.0 - - - - - - -
23/03:00am 16.8 SSW 6 8 1020.6 - 0.0 - - - - - - -
23/02:30am 17.4 SSW 5 7 1020.9 - 0.0 - - - - - - -
23/02:00am 17.5 SSW 4 6 1021.1 - 0.0 - - - - - - -
23/01:30am 17.2 SSW 6 9 1021.1 - 0.0 - - - - - - -
23/01:00am 17.5 SSW 5 6 1021.4 - 0.0 - - - - - - -
23/12:30am 18.1 SSW 5 7 1021.6 - 0.0 - - - - - - -
23/12:00am 18.5 S 6 8 1021.7 - 0.0 - - - - - - -
 
Date/Time
EST
Temp
°C
Wind Pressure Rain since
9am
mm
Weather Cloud Vis
km
Sea
Height
m
Swell
Dir  Spd
kts
Gust
kts
hPa Trend Height
m
Period
s
Dir
22/11:30pm 18.7 SSE 5 6 1021.9 - 0.0 - - - - - - -
22/11:00pm 19.1 SSE 3 5 1022.2 - 0.0 - - - - - - -
22/10:30pm 19.6 SSE 5 8 1022.5 - 0.0 - - - - - - -
22/10:00pm 20.2 SE 5 8 1022.6 - 0.0 - - - - - - -
22/09:30pm 20.2 SE 7 11 1022.5 - 0.0 - - - - - - -
22/09:00pm 20.5 SE 9 14 1022.5 - 0.0 - - - - - - -
22/08:30pm 20.7 ESE 9 14 1022.4 - 0.0 - - - - - - -
22/08:00pm 20.9 ESE 14 19 1022.3 - 0.0 - - - - - - -
22/07:30pm 20.7 ESE 10 15 1022.0 - 0.0 - - - - - - -
22/07:00pm 20.8 ESE 9 13 1022.0 - 0.0 - - - - - - -
22/06:30pm 20.8 ESE 8 14 1021.8 - 0.0 - - - - - - -
22/06:00pm 20.9 ESE 10 14 1021.6 - 0.0 - - - - - - -
22/05:30pm 21.0 ESE 8 12 1021.3 - 0.0 - - - - - - -
22/05:00pm 21.3 ESE 7 10 1021.1 - 0.0 - - - - - - -
22/04:30pm 21.7 SE 7 10 1021.0 - 0.0 - - - - - - -
22/04:00pm 21.9 ESE 9 12 1021.0 - 0.0 - - - - - - -
22/03:30pm 22.1 ESE 9 11 1020.9 - 0.0 - - - - - - -
22/03:00pm 22.4 ESE 10 14 1020.8 - 0.0 - - - - - - -
22/02:30pm 22.5 ESE 10 14 1020.9 - 0.0 - - - - - - -
22/02:00pm 22.9 ESE 9 13 1021.0 - 0.0 - - - - - - -
22/01:30pm 22.7 ESE 10 13 1021.3 - 0.0 - - - - - - -
22/01:00pm 22.5 ESE 10 14 1021.8 - 0.0 - - - - - - -
22/12:30pm 23.3 SE 9 14 1022.2 - 0.0 - - - - - - -
22/12:00pm 22.6 SSE 10 14 1022.7 - 0.0 - - - - - - -
22/11:30am 22.0 SE 9 13 1023.2 - 0.0 - - - - - - -
22/11:00am 21.2 SE 9 14 1023.5 - 0.0 - - - - - - -
22/10:30am 20.7 SSE 10 15 1023.9 - 0.0 - - - - - - -
22/10:00am 20.4 SE 9 14 1024.1 - 0.0 - - - - - - -
22/09:30am 19.9 SSE 9 14 1024.3 - 0.0 - - - - - - -
22/09:00am 18.8 SSE 7 11 1024.3 - 0.0 - - - - - - -
22/08:30am 17.2 SSW 5 8 1024.0 - 0.0 - - - - - - -
22/08:00am 16.0 W 5 6 1023.8 - 0.0 - - - - - - -
22/07:30am 14.9 W 5 6 1023.6 - 0.0 - - - - - - -
22/07:00am 13.9 W 5 7 1023.3 - 0.0 - - - - - - -
22/06:30am 13.0 WNW 6 8 1023.1 - 0.0 - - - - - - -
22/06:00am 13.1 WNW 4 5 1023.0 - 0.0 - - - - - - -
22/05:30am 13.2 WNW 8 10 1022.4 - 0.0 - - - - - - -
22/05:00am 13.2 W 7 9 1022.2 - 0.0 - - - - - - -
22/04:30am 13.9 W 6 7 1022.0 - 0.0 - - - - - - -
22/04:00am 14.3 W 7 9 1021.9 - 0.0 - - - - - - -
22/03:30am 13.4 W 7 8 1021.9 - 0.0 - - - - - - -
22/03:00am 13.3 W 6 7 1021.9 - 0.0 - - - - - - -
22/02:30am 13.3 W 6 7 1022.0 - 0.0 - - - - - - -
22/02:00am 13.2 W 5 6 1022.1 - 0.0 - - - - - - -
22/01:30am 12.8 W 5 6 1022.3 - 0.0 - - - - - - -
22/01:00am 13.6 W 5 6 1022.2 - 0.0 - - - - - - -
22/12:30am 14.0 W 5 6 1022.6 - 0.0 - - - - - - -
22/12:00am 14.5 W 4 7 1022.7 - 0.0 - - - - - - -
 
Date/Time
EST
Temp
°C
Wind Pressure Rain since
9am
mm
Weather Cloud Vis
km
Sea
Height
m
Swell
Dir  Spd
kts
Gust
kts
hPa Trend Height
m
Period
s
Dir
21/11:30pm 14.7 W 7 10 1022.8 - 0.0 - - - - - - -
21/11:00pm 14.7 WNW 8 10 1022.9 - 0.0 - - - - - - -
21/10:30pm 14.9 WNW 7 9 1022.9 - 0.0 - - - - - - -
21/10:00pm 15.1 WNW 7 8 1022.9 - 0.0 - - - - - - -
21/09:30pm 14.3 E 5 6 1022.8 - 0.0 - - - - - - -
21/09:00pm 14.3 E 6 6 1022.5 - 0.0 - - - - - - -
21/08:30pm 14.5 E 5 6 1022.3 - 0.0 - - - - - - -
21/08:00pm 14.8 E 6 7 1022.0 - 0.0 - - - - - - -
21/07:30pm 15.4 E 5 7 1021.7 - 0.0 - - - - - - -
21/07:00pm 16.1 E 3 5 1021.5 - 0.0 - - - - - - -
21/06:30pm 17.0 E 3 5 1021.2 - 0.0 - - - - - - -
21/06:00pm 18.2 E 2 4 1021.0 - 0.0 - - - - - - -
21/05:30pm 20.7 E 4 5 1020.8 - 0.0 - - - - - - -
21/05:00pm 20.9 E 5 5 1020.7 - 0.0 - - - - - - -
21/04:30pm 20.9 E 4 5 1020.5 - 0.0 - - - - - - -
21/04:00pm 21.2 E 6 8 1020.4 - 0.0 - - - - - - -
21/03:30pm 21.3 E 8 10 1020.2 - 0.0 - - - - - - -
21/03:00pm 21.4 E 8 9 1020.2 - 0.0 - - - - - - -
21/02:30pm 21.6 E 8 11 1020.3 - 0.0 - - - - - - -
21/02:00pm 22.0 E 10 11 1020.5 - 0.0 - - - - - - -
21/01:30pm 21.9 E 10 11 1020.7 - 0.0 - - - - - - -
21/01:00pm 21.7 E 10 11 1021.0 - 0.0 - - - - - - -
21/12:30pm 21.8 E 9 11 1021.2 - 0.0 - - - - - - -
21/12:00pm 21.8 ESE 10 13 1021.7 - 0.0 - - - - - - -
21/11:30am 21.7 SE 9 14 1022.1 - 0.0 - - - - - - -
21/11:00am 21.6 SE 9 14 1022.6 - 0.0 - - - - - - -
21/10:30am 21.5 SE 9 13 1022.8 - 0.0 - - - - - - -
21/10:00am 20.9 SSE 10 17 1023.1 - 0.0 - - - - - - -
21/09:30am 20.2 SSE 10 15 1023.2 - 0.0 - - - - - - -
21/09:00am 19.6 SSE 8 11 1023.1 - 0.0 - - - - - - -
21/08:30am 18.0 SSW 7 9 1022.9 - 0.0 - - - - - - -
21/08:00am 16.8 SSW 5 6 1022.5 - 0.0 - - - - - - -
21/07:30am 15.4 SSW 5 6 1022.2 - 0.0 - - - - - - -
21/07:00am 13.9 SSW 4 5 1022.0 - 0.0 - - - - - - -
21/06:30am 13.7 SSW 5 6 1021.7 - 0.0 - - - - - - -
21/06:00am 14.5 SSW 4 5 1021.4 - 0.0 - - - - - - -
21/05:30am 14.4 SSW 5 6 1021.0 - 0.0 - - - - - - -
21/05:00am 14.4 SSW 5 6 1020.8 - 0.0 - - - - - - -
21/04:30am 14.0 SSW 5 6 1020.6 - 0.0 - - - - - - -
21/04:00am 15.2 S 4 5 1020.6 - 0.0 - - - - - - -
21/03:30am 15.3 S 4 5 1020.7 - 0.0 - - - - - - -
21/03:00am 16.3 S 4 5 1020.6 - 0.0 - - - - - - -
21/02:30am 16.4 S 4 5 1020.7 - 0.0 - - - - - - -
21/02:00am 17.6 S 5 6 1020.9 - 0.0 - - - - - - -
21/01:30am 18.7 SSE 6 8 1021.0 - 0.0 - - - - - - -
21/01:00am 19.5 SE 8 13 1021.2 - 0.0 - - - - - - -
21/12:30am 19.8 SE 9 14 1021.3 - 0.0 - - - - - - -
21/12:00am 20.1 SE 9 14 1021.3 - 0.0 - - - - - - -
 
Date/Time
EST
Temp
°C
Wind Pressure Rain since
9am
mm
Weather Cloud Vis
km
Sea
Height
m
Swell
Dir  Spd
kts
Gust
kts
hPa Trend Height
m
Period
s
Dir
20/11:30pm 16.6 WSW 5 6 1021.3 - 0.0 - - - - - - -
20/11:00pm 16.7 WSW 4 6 1021.3 - 0.0 - - - - - - -
20/10:30pm 16.4 WSW 5 6 1021.3 - 0.0 - - - - - - -
20/10:00pm 16.5 WSW 4 5 1021.4 - 0.0 - - - - - - -
20/09:30pm 17.0 SW 5 6 1021.2 - 0.0 - - - - - - -
20/09:00pm 18.1 ESE 4 5 1021.1 - 0.0 - - - - - - -
20/08:30pm 18.3 ESE 4 5 1021.0 - 0.0 - - - - - - -
20/08:00pm 19.3 ESE 3 6 1020.7 - 0.0 - - - - - - -
20/07:30pm 21.1 ESE 7 8 1020.4 - 0.0 - - - - - - -
20/07:00pm 21.3 ESE 7 10 1020.2 - 0.0 - - - - - - -
20/06:30pm 21.4 ESE 10 14 1019.8 - 0.0 - - - - - - -
20/06:00pm 21.5 ESE 12 16 1019.5 - 0.0 - - - - - - -
20/05:30pm 21.5 ESE 11 17 1019.4 - 0.0 - - - - - - -
20/05:00pm 21.7 ESE 14 17 1019.1 - 0.0 - - - - - - -
20/04:30pm 22.0 ESE 12 15 1019.0 - 0.0 - - - - - - -
20/04:00pm 22.2 ESE 12 16 1018.8 - 0.0 - - - - - - -
20/03:30pm 22.6 ESE 11 15 1018.7 - 0.0 - - - - - - -
20/03:00pm 23.1 ESE 11 15 1018.7 - 0.0 - - - - - - -
20/02:30pm 23.0 SE 11 15 1018.8 - 0.0 - - - - - - -
20/02:00pm 23.0 SE 11 16 1018.9 - 0.0 - - - - - - -
20/01:30pm 22.9 ESE 11 17 1019.2 - 0.0 - - - - - - -
20/01:00pm 23.3 SE 11 15 1019.4 - 0.0 - - - - - - -
20/12:30pm 22.6 SE 10 15 1019.9 - 0.0 - - - - - - -
20/12:00pm 21.9 SSE 12 18 1020.2 - 0.0 - - - - - - -

Other Formats:

Comma delimited format used in spreadsheet applications
http://www.bom.gov.au/fwo/IDQ60701/IDQ60701.94373.axf

JavaScript Object Notation format (JSON) in row-major order
http://www.bom.gov.au/fwo/IDQ60701/IDQ60701.94373.json